Time;durP1;ratioP1;P1;durP2;ratioP2;P2;SDS_P1;SDS_P2;PMS_P1;PMS_P2;Temp;Humidity;BMP_temperature;BMP_pressure;BME280_temperature;BME280_humidity;BME280_pressure;Samples;Min_cycle;Max_cycle;Signal;HPM_P1;HPM_P2
2023/07/23 00:00:10;;;;;;;5.60;2.30;;;;;;;19.47;79.09;98751.84;4483726;32;20136;-66
2023/07/23 00:02:40;;;;;;;4.87;2.20;;;;;;;19.43;79.75;98750.59;4484003;32;20419;-66
2023/07/23 00:05:08;;;;;;;3.75;2.20;;;;;;;19.40;79.62;98756.31;4483841;32;20126;-66
2023/07/23 00:07:36;;;;;;;4.62;2.33;;;;;;;19.39;80.41;98757.31;4485528;32;20111;-66
2023/07/23 00:10:05;;;;;;;2.75;1.80;;;;;;;19.44;80.50;98763.69;4485903;32;20152;-66
2023/07/23 00:12:33;;;;;;;2.50;1.80;;;;;;;19.41;81.37;98764.09;4485904;32;20603;-66
2023/07/23 00:15:02;;;;;;;5.45;2.40;;;;;;;19.37;81.39;98760.16;4485664;32;20451;-66
2023/07/23 00:17:30;;;;;;;2.55;1.92;;;;;;;19.35;81.71;98761.34;4485885;32;20485;-66
2023/07/23 00:19:58;;;;;;;4.35;1.90;;;;;;;19.29;82.51;98762.97;4485819;32;20114;-66
2023/07/23 00:22:25;;;;;;;3.50;1.80;;;;;;;19.25;82.81;98764.38;4485988;32;20104;-66
2023/07/23 00:24:57;;;;;;;3.20;1.77;;;;;;;19.23;83.31;98769.03;4485611;32;20157;-66
2023/07/23 00:27:25;;;;;;;3.67;2.17;;;;;;;19.17;83.58;98762.69;4486020;32;20454;-66
2023/07/23 00:29:52;;;;;;;4.97;2.70;;;;;;;19.17;83.84;98767.16;4485726;32;20093;-66
2023/07/23 00:32:20;;;;;;;3.95;2.08;;;;;;;19.08;84.14;98769.97;4485909;32;20096;-66
2023/07/23 00:34:48;;;;;;;3.15;2.08;;;;;;;19.00;84.52;98769.28;4485843;32;20450;-66
2023/07/23 00:37:16;;;;;;;10.38;2.33;;;;;;;18.89;85.58;98776.72;4485787;32;20096;-66
2023/07/23 00:39:44;;;;;;;3.55;2.20;;;;;;;18.85;85.88;98774.63;4485708;32;20472;-66
2023/07/23 00:42:12;;;;;;;7.30;2.45;;;;;;;18.87;86.26;98773.47;4485697;32;20111;-66
2023/07/23 00:44:39;;;;;;;4.20;1.90;;;;;;;18.78;86.03;98774.56;4485682;32;20084;-66
2023/07/23 00:47:08;;;;;;;4.43;2.20;;;;;;;18.85;85.94;98775.50;4485725;32;20118;-66
2023/07/23 00:49:36;;;;;;;4.30;2.22;;;;;;;18.84;86.25;98770.34;4471591;32;20366;-66
2023/07/23 00:52:04;;;;;;;3.05;2.17;;;;;;;18.76;87.48;98769.44;4485620;32;20152;-66
2023/07/23 00:54:32;;;;;;;4.75;2.30;;;;;;;18.77;88.59;98767.63;4471605;32;20104;-66
2023/07/23 00:57:02;;;;;;;3.40;1.95;;;;;;;18.77;89.53;98767.63;4485589;32;20093;-66
2023/07/23 00:59:32;;;;;;;5.43;2.30;;;;;;;18.67;91.00;98775.06;4485615;32;20493;-66
2023/07/23 01:01:59;;;;;;;3.85;2.35;;;;;;;18.68;92.45;98774.06;4485481;32;20544;-66
2023/07/23 01:04:27;;;;;;;4.50;2.60;;;;;;;18.72;93.06;98772.69;4485572;32;20126;-66
2023/07/23 01:06:57;;;;;;;5.97;2.65;;;;;;;18.68;93.91;98777.53;4485571;32;20144;-66
2023/07/23 01:09:26;;;;;;;4.43;2.30;;;;;;;18.66;94.91;98768.13;4485555;32;20162;-66
2023/07/23 01:11:55;;;;;;;3.97;2.25;;;;;;;18.62;96.46;98770.31;4485810;32;20100;-66
2023/07/23 01:14:23;;;;;;;3.83;2.33;;;;;;;18.58;97.04;98763.78;4485347;32;20156;-66
2023/07/23 01:16:57;;;;;;;3.67;2.42;;;;;;;18.56;97.64;98771.91;4485511;32;20155;-66
2023/07/23 01:19:26;;;;;;;6.15;2.50;;;;;;;18.49;98.87;98771.03;4484812;32;20176;-66
2023/07/23 01:21:58;;;;;;;4.15;1.90;;;;;;;18.46;99.94;98776.72;4485393;32;20092;-66
2023/07/23 01:24:26;;;;;;;6.13;2.57;;;;;;;18.47;100.00;98773.06;4485542;32;20091;-66
2023/07/23 01:26:54;;;;;;;4.12;2.42;;;;;;;18.46;100.00;98776.72;4485428;32;20477;-66
2023/07/23 01:29:21;;;;;;;3.97;2.42;;;;;;;18.42;100.00;98786.03;4485684;32;20571;-66
2023/07/23 01:31:49;;;;;;;3.50;2.33;;;;;;;18.37;100.00;98778.66;4485324;32;20100;-66
2023/07/23 01:34:18;;;;;;;2.83;1.98;;;;;;;18.37;100.00;98775.19;4485426;32;20111;-66
2023/07/23 01:36:46;;;;;;;3.50;2.15;;;;;;;18.31;100.00;98773.28;4485342;32;20122;-66
2023/07/23 01:39:14;;;;;;;3.67;2.12;;;;;;;18.30;100.00;98775.09;4485355;32;20092;-66
2023/07/23 01:41:43;;;;;;;4.70;2.80;;;;;;;18.32;100.00;98772.25;4485306;32;20142;-66
2023/07/23 01:44:10;;;;;;;3.60;2.30;;;;;;;18.27;100.00;98772.81;4485471;32;20165;-66
2023/07/23 01:46:38;;;;;;;4.37;2.00;;;;;;;18.23;100.00;98774.22;4471187;32;20210;-66
2023/07/23 01:49:06;;;;;;;5.25;2.50;;;;;;;18.27;100.00;98772.81;4485183;32;20446;-66
2023/07/23 01:51:34;;;;;;;4.82;2.03;;;;;;;18.27;100.00;98778.97;4485015;32;20636;-66
2023/07/23 01:54:02;;;;;;;3.50;2.10;;;;;;;18.26;100.00;98781.81;4485312;32;20097;-66
2023/07/23 01:56:33;;;;;;;3.60;2.58;;;;;;;18.25;100.00;98770.34;4485162;32;20157;-66
2023/07/23 01:59:04;;;;;;;3.22;2.30;;;;;;;18.19;100.00;98775.59;4485671;32;20075;-66
2023/07/23 02:01:33;;;;;;;5.50;2.70;;;;;;;18.08;100.00;98779.53;4484573;32;20114;-66
2023/07/23 02:04:02;;;;;;;12.20;3.15;;;;;;;18.06;100.00;98776.22;4485454;32;20172;-66
2023/07/23 02:06:29;;;;;;;4.53;2.80;;;;;;;18.02;100.00;98767.03;4485206;32;20119;-66
2023/07/23 02:08:58;;;;;;;5.57;2.62;;;;;;;17.98;100.00;98777.16;4485096;32;20114;-66
2023/07/23 02:11:26;;;;;;;3.70;2.35;;;;;;;17.99;100.00;98776.16;4485095;32;20444;-66
2023/07/23 02:13:55;;;;;;;4.25;2.58;;;;;;;17.95;100.00;98766.94;4485009;32;20096;-66
2023/07/23 02:16:23;;;;;;;4.45;2.20;;;;;;;17.92;100.00;98775.25;4485209;32;20157;-66
2023/07/23 02:18:51;;;;;;;15.63;2.72;;;;;;;17.96;100.00;98776.53;4485015;32;20092;-66
2023/07/23 02:21:19;;;;;;;4.87;2.75;;;;;;;17.98;100.00;98774.50;4484959;32;20100;-66
2023/07/23 02:23:49;;;;;;;4.50;2.70;;;;;;;18.03;100.00;98784.56;4485108;32;20084;-66
2023/07/23 02:26:16;;;;;;;5.55;2.50;;;;;;;18.05;100.00;98787.88;4470785;32;20601;-66
2023/07/23 02:28:45;;;;;;;5.75;2.87;;;;;;;18.06;100.00;98782.37;4484979;32;20145;-66
2023/07/23 02:31:12;;;;;;;3.75;2.22;;;;;;;18.08;100.00;98784.84;4485354;32;20504;-66
2023/07/23 02:33:40;;;;;;;3.92;2.45;;;;;;;18.03;100.00;98784.56;4485073;32;20502;-66
2023/07/23 02:36:09;;;;;;;3.85;2.42;;;;;;;17.98;100.00;98785.12;4484989;32;20122;-66
2023/07/23 02:38:36;;;;;;;4.18;2.67;;;;;;;17.97;100.00;98788.78;4484880;32;20100;-66
2023/07/23 02:41:04;;;;;;;3.45;2.33;;;;;;;18.06;100.00;98792.16;4484840;32;20088;-66
2023/07/23 02:43:32;;;;;;;4.72;2.40;;;;;;;17.99;100.00;98788.59;4485013;32;20161;-66
2023/07/23 02:46:00;;;;;;;3.97;2.53;;;;;;;17.95;100.00;98787.31;4484768;32;20088;-66
2023/07/23 02:48:27;;;;;;;5.37;2.28;;;;;;;17.90;100.00;98791.34;4484918;32;20092;-66
2023/07/23 02:50:55;;;;;;;4.37;2.53;;;;;;;17.93;100.00;98794.66;4484253;32;20173;-66
2023/07/23 02:53:23;;;;;;;4.87;2.55;;;;;;;17.87;100.00;98794.31;4484941;32;20149;-66
2023/07/23 02:55:50;;;;;;;3.80;2.55;;;;;;;17.90;100.00;98796.63;4484688;32;20096;-66
2023/07/23 02:58:18;;;;;;;6.47;2.45;;;;;;;17.85;100.00;98788.41;4484691;32;20492;-66
2023/07/23 03:00:46;;;;;;;5.72;2.53;;;;;;;17.84;100.00;98788.59;4484585;32;20101;-66
2023/07/23 03:03:13;;;;;;;4.37;2.35;;;;;;;17.82;100.00;98788.78;4484999;32;20104;-66
2023/07/23 03:05:42;;;;;;;3.45;2.45;;;;;;;17.83;100.00;98786.94;4484666;32;20100;-66
2023/07/23 03:08:10;;;;;;;4.28;2.47;;;;;;;17.80;100.00;98787.28;4484730;32;20119;-66
2023/07/23 03:10:40;;;;;;;3.55;2.40;;;;;;;17.82;100.00;98791.41;4484396;32;20442;-66
2023/07/23 03:13:08;;;;;;;4.15;2.70;;;;;;;17.82;100.00;98786.12;4484301;32;20096;-66
2023/07/23 03:15:36;;;;;;;5.25;2.78;;;;;;;17.84;100.00;98783.28;4480802;32;20172;-66
2023/07/23 03:18:03;;;;;;;4.87;3.05;;;;;;;17.82;100.00;98780.81;4484588;32;20134;-66
2023/07/23 03:20:32;;;;;;;5.15;2.78;;;;;;;17.79;100.00;98785.66;4484420;32;20088;-66
2023/07/23 03:23:02;;;;;;;3.53;2.70;;;;;;;17.69;100.00;98780.63;4484497;32;20076;-66
2023/07/23 03:25:29;;;;;;;4.75;2.60;;;;;;;17.71;100.00;98783.91;4484467;32;20516;-66
2023/07/23 03:27:59;;;;;;;5.25;2.55;;;;;;;17.71;100.00;98781.25;4484311;32;20118;-66
2023/07/23 03:30:27;;;;;;;8.18;2.80;;;;;;;17.71;100.00;98786.56;4484385;32;20164;-66
2023/07/23 03:32:55;;;;;;;5.53;2.60;;;;;;;17.73;100.00;98788.03;4484564;32;20092;-66
2023/07/23 03:35:24;;;;;;;4.03;2.40;;;;;;;17.76;100.00;98786.00;4484283;32;20104;-66
2023/07/23 03:37:53;;;;;;;4.40;2.50;;;;;;;17.81;100.00;98794.25;4484321;32;20087;-66
2023/07/23 03:40:21;;;;;;;4.40;2.83;;;;;;;17.86;100.00;98787.38;4484155;32;20092;-66
2023/07/23 03:42:49;;;;;;;5.70;2.67;;;;;;;17.86;100.00;98787.38;4485941;32;20093;-66
2023/07/23 03:45:16;;;;;;;5.10;2.47;;;;;;;17.85;100.00;98791.06;4486270;32;20092;-66
2023/07/23 03:47:45;;;;;;;4.15;2.40;;;;;;;17.82;100.00;98790.56;4486076;32;20108;-66
2023/07/23 03:50:12;;;;;;;4.40;2.55;;;;;;;17.87;100.00;98791.69;4486080;32;20100;-66
2023/07/23 03:52:41;;;;;;;7.18;2.80;;;;;;;17.94;100.00;98786.50;4485875;32;20127;-66
2023/07/23 03:55:09;;;;;;;5.82;2.83;;;;;;;17.96;100.00;98788.97;4486139;32;20118;-66
2023/07/23 03:57:37;;;;;;;3.67;2.30;;;;;;;17.95;100.00;98780.19;4486114;32;20153;-66
2023/07/23 04:00:06;;;;;;;6.07;2.67;;;;;;;18.01;100.00;98784.75;4486028;32;20114;-66
2023/07/23 04:02:37;;;;;;;5.23;2.40;;;;;;;18.07;100.00;98783.19;4486028;32;20167;-66
2023/07/23 04:05:05;;;;;;;3.47;2.33;;;;;;;18.04;100.00;98787.03;4486012;32;20100;-66
2023/07/23 04:07:34;;;;;;;3.53;2.33;;;;;;;18.11;100.00;98781.81;4486309;32;20118;-66
2023/07/23 04:10:03;;;;;;;3.78;2.28;;;;;;;18.23;100.00;98782.97;4485836;32;20142;-66
2023/07/23 04:12:33;;;;;;;7.75;2.78;;;;;;;18.39;100.00;98781.13;4486069;32;20111;-66
2023/07/23 04:15:02;;;;;;;4.55;2.70;;;;;;;18.52;100.00;98781.25;4481609;32;20187;-66
2023/07/23 04:17:32;;;;;;;5.40;2.65;;;;;;;18.63;100.00;98778.09;4486208;32;20186;-66
2023/07/23 04:20:00;;;;;;;5.05;2.72;;;;;;;18.75;100.00;98786.38;4485898;32;20092;-66
2023/07/23 04:22:30;;;;;;;5.78;2.80;;;;;;;18.86;100.00;98787.72;4485945;32;20158;-66
2023/07/23 04:24:59;;;;;;;4.65;2.83;;;;;;;19.05;100.00;98782.81;4485976;32;20167;-66
2023/07/23 04:27:29;;;;;;;4.65;2.80;;;;;;;19.23;100.00;98782.31;4485885;32;20421;-66
2023/07/23 04:29:56;;;;;;;4.25;2.53;;;;;;;19.40;100.00;98790.84;4486221;32;20126;-66
2023/07/23 04:32:25;;;;;;;5.35;2.50;;;;;;;19.61;100.00;98790.78;4485942;32;20502;-66
2023/07/23 04:34:52;;;;;;;3.95;2.33;;;;;;;19.82;100.00;98791.75;4485757;32;20114;-66
2023/07/23 04:37:20;;;;;;;3.97;2.35;;;;;;;19.94;100.00;98798.16;4486106;32;20084;-66
2023/07/23 04:39:48;;;;;;;3.12;2.37;;;;;;;20.01;100.00;98806.97;4485821;32;20099;-66
2023/07/23 04:42:16;;;;;;;4.72;2.65;;;;;;;20.13;100.00;98798.44;4485700;32;20446;-66
2023/07/23 04:44:44;;;;;;;4.57;2.25;;;;;;;20.31;100.00;98800.56;4485818;32;20167;-66
2023/07/23 04:47:13;;;;;;;3.87;2.17;;;;;;;20.42;98.37;98807.13;4485637;32;20130;-66
2023/07/23 04:49:40;;;;;;;3.45;2.15;;;;;;;20.34;97.30;98806.28;4471361;32;20114;-66
2023/07/23 04:52:07;;;;;;;3.55;2.25;;;;;;;20.24;97.75;98811.16;4485143;32;20783;-66
2023/07/23 04:54:35;;;;;;;5.15;2.50;;;;;;;20.10;98.84;98807.62;4485287;32;20099;-66
2023/07/23 04:57:03;;;;;;;3.12;2.22;;;;;;;20.10;99.02;98806.81;4485743;32;20096;-66
2023/07/23 04:59:31;;;;;;;5.35;2.67;;;;;;;20.20;99.42;98810.72;4485612;32;20099;-66
2023/07/23 05:01:58;;;;;;;4.00;2.28;;;;;;;20.43;98.85;98814.09;4485630;32;20112;-66
2023/07/23 05:04:27;;;;;;;4.32;2.75;;;;;;;20.53;97.57;98809.19;4485587;32;20093;-66
2023/07/23 05:06:54;;;;;;;3.35;2.15;;;;;;;20.76;95.18;98813.38;4485370;32;20149;-66
2023/07/23 05:09:22;;;;;;;4.60;2.55;;;;;;;20.95;93.99;98823.25;4485620;32;20119;-66
2023/07/23 05:11:50;;;;;;;4.37;2.12;;;;;;;21.04;90.77;98822.03;4485452;32;20621;-66
2023/07/23 05:14:17;;;;;;;7.22;2.53;;;;;;;21.07;92.60;98826.97;4481089;32;20104;-66
2023/07/23 05:16:45;;;;;;;4.78;2.47;;;;;;;21.16;92.35;98826.75;4485577;32;20119;-66
2023/07/23 05:19:13;;;;;;;5.10;2.45;;;;;;;21.28;92.90;98833.91;4485808;32;20378;-66
2023/07/23 05:21:40;;;;;;;3.83;2.60;;;;;;;21.43;89.57;98832.91;4485708;32;20528;-66
2023/07/23 05:24:08;;;;;;;4.47;2.58;;;;;;;21.55;87.74;98828.59;4485438;32;20081;-66
2023/07/23 05:26:36;;;;;;;3.50;2.17;;;;;;;21.53;89.92;98836.00;4485470;32;20440;-66
2023/07/23 05:29:04;;;;;;;3.80;2.40;;;;;;;21.66;86.99;98827.16;4485535;32;20104;-66
2023/07/23 05:31:32;;;;;;;3.90;2.50;;;;;;;21.85;87.62;98833.50;4485188;32;20655;-67
2023/07/23 05:34:00;;;;;;;5.72;2.92;;;;;;;21.98;85.45;98844.13;4485434;32;20131;-66
2023/07/23 05:36:28;;;;;;;4.55;2.78;;;;;;;22.07;84.93;98841.22;4485535;32;20100;-66
2023/07/23 05:38:56;;;;;;;5.20;2.90;;;;;;;21.89;85.39;98840.06;4485272;32;20821;-66
2023/07/23 05:41:24;;;;;;;5.72;2.70;;;;;;;21.95;86.00;98844.56;4485317;32;20104;-66
2023/07/23 05:43:51;;;;;;;4.95;2.53;;;;;;;22.11;85.71;98843.25;4485347;32;20126;-66
2023/07/23 05:46:19;;;;;;;3.62;2.55;;;;;;;22.24;83.48;98846.91;4485453;32;20089;-66
2023/07/23 05:48:48;;;;;;;4.93;2.58;;;;;;;22.36;84.52;98844.44;4485191;32;20100;-66
2023/07/23 05:51:15;;;;;;;3.80;2.55;;;;;;;22.54;83.00;98851.75;4485167;32;20092;-66
2023/07/23 05:53:43;;;;;;;4.47;2.70;;;;;;;22.64;83.18;98855.59;4485276;32;20096;-66
2023/07/23 05:56:11;;;;;;;4.62;2.60;;;;;;;22.60;80.82;98856.22;4485563;32;20092;-66
2023/07/23 05:58:38;;;;;;;4.93;2.40;;;;;;;22.61;80.28;98857.87;4485261;32;20156;-66
2023/07/23 06:01:06;;;;;;;4.45;2.33;;;;;;;22.71;79.37;98854.75;4485404;32;20115;-66
2023/07/23 06:03:34;;;;;;;6.87;2.53;;;;;;;22.55;77.14;98859.53;4484741;32;20453;-66
2023/07/23 06:06:20;;;;;;;6.57;2.47;;;;;;;22.70;78.18;98859.28;4485484;32;20158;-66
2023/07/23 06:08:48;;;;;;;3.62;2.55;;;;;;;22.84;77.05;98857.34;4485267;32;20135;-66
2023/07/23 06:11:16;;;;;;;5.03;2.87;;;;;;;22.85;77.64;98862.47;4485312;32;20110;-67
2023/07/23 06:13:44;;;;;;;4.18;2.53;;;;;;;22.94;77.97;98860.38;4480646;32;20108;-66
2023/07/23 06:16:12;;;;;;;3.53;2.55;;;;;;;23.07;76.10;98859.44;4479113;32;20141;-66
2023/07/23 06:18:40;;;;;;;4.37;2.33;;;;;;;23.12;76.61;98864.16;4485000;32;20786;-66
2023/07/23 06:21:08;;;;;;;4.32;2.53;;;;;;;23.17;78.03;98862.50;4485122;32;20084;-66
2023/07/23 06:23:35;;;;;;;4.07;2.80;;;;;;;23.18;75.68;98863.28;4485053;32;20127;-66
2023/07/23 06:26:03;;;;;;;4.55;2.70;;;;;;;23.07;76.91;98870.12;4485178;32;20093;-66
2023/07/23 06:28:31;;;;;;;3.90;2.45;;;;;;;23.15;77.98;98864.56;4485179;32;20096;-66
2023/07/23 06:30:58;;;;;;;4.00;2.60;;;;;;;23.21;77.73;98868.25;4485266;32;20453;-66
2023/07/23 06:33:27;;;;;;;4.30;2.92;;;;;;;23.14;76.52;98873.63;4470829;32;20111;-66
2023/07/23 06:35:54;;;;;;;3.87;2.50;;;;;;;23.11;80.24;98873.25;4484962;32;20123;-66
2023/07/23 06:38:22;;;;;;;4.25;2.50;;;;;;;23.36;81.43;98882.09;4484867;32;20092;-66
2023/07/23 06:40:53;;;;;;;6.45;3.00;;;;;;;23.52;81.78;98875.38;4485119;32;20097;-66
2023/07/23 06:43:22;;;;;;;4.25;2.60;;;;;;;23.61;79.29;98869.78;4484811;32;20088;-66
2023/07/23 06:45:51;;;;;;;4.40;2.90;;;;;;;23.79;76.04;98877.81;4484808;32;20394;-66
2023/07/23 06:48:20;;;;;;;4.95;2.70;;;;;;;23.87;75.99;98877.56;4484897;32;20095;-66
2023/07/23 06:50:48;;;;;;;4.75;2.42;;;;;;;23.94;73.57;98876.66;4481525;32;93696;-66
2023/07/23 06:53:15;;;;;;;3.62;2.37;;;;;;;23.98;75.78;98877.88;4484822;32;20222;-66
2023/07/23 06:56:01;;;;;;;4.12;2.55;;;;;;;24.01;72.38;98872.91;4484738;32;20371;-66
2023/07/23 06:58:33;;;;;;;3.42;2.40;;;;;;;24.11;72.23;98877.72;4484727;32;20162;-66
2023/07/23 07:01:00;;;;;;;4.30;2.40;;;;;;;24.09;72.64;98877.94;4470194;32;20084;-66
2023/07/23 07:03:28;;;;;;;3.40;2.30;;;;;;;24.05;64.39;98870.59;4484456;32;20088;-66
2023/07/23 07:05:57;;;;;;;4.37;2.30;;;;;;;24.24;65.97;98876.78;4484630;32;20101;-66
2023/07/23 07:08:26;;;;;;;4.05;2.40;;;;;;;24.22;65.79;98870.81;4484518;32;20104;-66
2023/07/23 07:11:02;;;;;;;4.55;2.58;;;;;;;24.30;65.95;98870.53;4484647;32;20123;-66
2023/07/23 07:13:30;;;;;;;3.40;2.33;;;;;;;24.48;68.57;98872.34;4481880;32;20169;-66
2023/07/23 07:15:59;;;;;;;4.20;2.03;;;;;;;24.71;68.22;98869.00;4482188;32;20092;-66
2023/07/23 07:18:26;;;;;;;4.20;2.40;;;;;;;24.86;67.04;98873.13;4484450;32;20663;-66
2023/07/23 07:20:55;;;;;;;4.10;2.60;;;;;;;24.98;68.02;98877.50;4484546;32;20473;-66
2023/07/23 07:23:23;;;;;;;3.37;2.50;;;;;;;25.13;68.59;98873.56;4484204;32;20151;-66
2023/07/23 07:25:50;;;;;;;4.30;2.83;;;;;;;25.17;65.81;98880.09;4484726;32;20175;-66
2023/07/23 07:28:19;;;;;;;3.53;2.33;;;;;;;25.47;65.75;98876.56;4484313;32;20154;-66
2023/07/23 07:30:46;;;;;;;3.50;2.20;;;;;;;25.46;64.14;98873.06;4484715;32;20115;-66
2023/07/23 07:33:14;;;;;;;3.70;2.53;;;;;;;25.41;66.18;98870.25;4484129;32;20084;-66
2023/07/23 07:35:43;;;;;;;4.25;2.75;;;;;;;25.57;62.02;98866.09;4484464;32;20093;-66
2023/07/23 07:38:10;;;;;;;4.37;2.62;;;;;;;25.52;66.15;98871.31;4484097;32;20126;-67
2023/07/23 07:40:39;;;;;;;3.45;2.40;;;;;;;25.65;63.30;98871.09;4469697;32;20514;-66
2023/07/23 07:43:06;;;;;;;3.60;2.80;;;;;;;25.46;61.24;98866.88;4484212;32;20169;-67
2023/07/23 07:45:34;;;;;;;4.50;2.70;;;;;;;25.58;61.59;98869.56;4484173;32;20088;-66
2023/07/23 07:48:02;;;;;;;6.40;2.90;;;;;;;25.54;60.94;98869.22;4484274;32;20092;-66
2023/07/23 07:50:30;;;;;;;8.13;2.83;;;;;;;25.64;62.49;98871.31;4483937;32;20175;-66
2023/07/23 07:52:57;;;;;;;3.90;2.53;;;;;;;25.82;61.41;98871.19;4484018;32;20100;-66
2023/07/23 07:55:26;;;;;;;4.43;2.65;;;;;;;26.01;60.65;98876.47;4483861;32;20085;-66
2023/07/23 07:57:53;;;;;;;4.72;2.85;;;;;;;26.11;59.96;98873.19;4484081;32;20445;-66
2023/07/23 08:00:21;;;;;;;3.50;2.60;;;;;;;26.27;58.35;98879.69;4483908;32;20556;-66
2023/07/23 08:02:50;;;;;;;4.97;3.20;;;;;;;26.32;59.69;98872.56;4483748;32;20454;-67
2023/07/23 08:05:18;;;;;;;4.78;2.92;;;;;;;26.50;58.56;98870.78;4483816;32;20458;-67
2023/07/23 08:07:46;;;;;;;4.50;2.78;;;;;;;26.55;60.32;98868.16;4483824;32;20100;-66
2023/07/23 08:10:14;;;;;;;4.87;3.00;;;;;;;26.61;59.49;98867.22;4484115;32;20104;-66
2023/07/23 08:12:41;;;;;;;7.30;2.53;;;;;;;26.81;56.44;98866.00;4469485;32;20084;-66
2023/07/23 08:15:11;;;;;;;3.60;2.45;;;;;;;26.84;58.71;98862.81;4479264;32;20124;-66
2023/07/23 08:17:40;;;;;;;4.72;2.85;;;;;;;26.71;59.31;98862.06;4483677;32;20122;-67
2023/07/23 08:20:08;;;;;;;3.70;2.62;;;;;;;26.86;56.17;98864.22;4483593;32;20127;-66
2023/07/23 08:22:37;;;;;;;3.25;2.47;;;;;;;26.90;56.47;98864.53;4483421;32;20114;-66
2023/07/23 08:25:05;;;;;;;6.55;2.75;;;;;;;27.14;55.21;98865.22;4483574;32;20092;-66
2023/07/23 08:27:33;;;;;;;3.30;2.47;;;;;;;27.08;54.74;98867.00;4484267;32;20115;-66
2023/07/23 08:30:01;;;;;;;3.78;2.42;;;;;;;27.14;55.00;98859.03;4471689;32;20175;-66
2023/07/23 08:32:30;;;;;;;3.65;2.50;;;;;;;27.42;56.50;98860.88;4471603;32;20100;-66
2023/07/23 08:34:58;;;;;;;7.22;2.87;;;;;;;27.56;54.29;98862.16;4485745;32;20136;-67
2023/07/23 08:37:27;;;;;;;4.43;2.72;;;;;;;27.43;54.18;98865.19;4485863;32;20446;-67
2023/07/23 08:39:55;;;;;;;4.07;2.87;;;;;;;27.42;54.48;98864.38;4485964;32;20084;-66
2023/07/23 08:42:52;;;;;;;3.03;2.00;;;;;;;27.48;53.03;98859.06;4485746;32;20080;-66
2023/07/23 08:45:30;;;;;;;4.00;2.20;;;;;;;27.46;50.99;98866.56;4471639;32;20462;-66
2023/07/23 08:48:19;;;;;;;2.80;2.17;;;;;;;27.60;47.20;98857.09;4485679;32;20148;-66
2023/07/23 08:50:48;;;;;;;3.37;2.10;;;;;;;27.75;46.03;98860.03;4485477;32;20790;-66
2023/07/23 08:53:17;;;;;;;3.08;1.87;;;;;;;27.71;45.08;98874.22;4485601;32;20096;-66
2023/07/23 08:55:46;;;;;;;4.15;2.55;;;;;;;27.70;46.18;98870.72;4485569;32;20135;-66
2023/07/23 08:58:17;;;;;;;3.45;2.40;;;;;;;27.84;45.71;98868.47;4485551;32;20104;-66
2023/07/23 09:00:46;;;;;;;2.75;1.85;;;;;;;27.82;47.55;98864.44;4485710;32;20258;-66
2023/07/23 09:03:19;;;;;;;3.62;2.20;;;;;;;27.71;47.35;98869.66;4485589;32;20461;-66
2023/07/23 09:05:47;;;;;;;5.03;2.22;;;;;;;27.79;49.43;98855.75;4485632;32;20081;-66
2023/07/23 09:08:16;;;;;;;3.60;2.45;;;;;;;27.83;47.68;98868.72;4485669;32;20092;-66
2023/07/23 09:10:46;;;;;;;3.53;2.35;;;;;;;27.88;48.88;98869.62;4485451;32;20118;-66
2023/07/23 09:13:14;;;;;;;4.12;2.17;;;;;;;28.12;47.75;98875.63;4484882;32;20096;-66
2023/07/23 09:15:51;;;;;;;4.30;2.20;;;;;;;28.27;47.57;98872.31;4482525;32;20105;-66
2023/07/23 09:18:19;;;;;;;2.83;2.05;;;;;;;28.17;47.70;98866.00;4471509;32;20092;-66
2023/07/23 09:20:50;;;;;;;6.30;2.08;;;;;;;28.30;47.34;98876.41;4485575;32;20096;-66
2023/07/23 09:23:17;;;;;;;7.60;2.10;;;;;;;28.43;43.15;98867.91;4485508;32;20081;-66
2023/07/23 09:25:46;;;;;;;3.00;2.20;;;;;;;28.45;44.88;98867.66;4485415;32;20105;-66
2023/07/23 09:28:21;;;;;;;3.47;2.60;;;;;;;28.66;47.89;98857.94;4485599;32;20100;-67
2023/07/23 09:30:54;;;;;;;2.87;2.08;;;;;;;28.52;47.82;98867.47;4485525;32;20124;-67
2023/07/23 09:33:21;;;;;;;3.20;2.10;;;;;;;28.75;45.95;98869.94;4485384;32;20080;-66
2023/07/23 09:35:48;;;;;;;2.55;1.92;;;;;;;28.43;46.02;98872.50;4485384;32;20128;-67
2023/07/23 09:38:18;;;;;;;4.03;2.40;;;;;;;28.60;44.70;98885.91;4485355;32;20128;-66
2023/07/23 09:40:48;;;;;;;3.80;2.20;;;;;;;28.62;45.50;98873.03;4484852;32;20107;-66
2023/07/23 09:43:16;;;;;;;3.37;2.40;;;;;;;28.82;44.22;98881.31;4485460;32;20111;-66
2023/07/23 09:45:43;;;;;;;4.65;2.42;;;;;;;28.95;47.53;98872.00;4485082;32;20119;-66
2023/07/23 09:48:14;;;;;;;3.53;2.12;;;;;;;29.03;45.03;98868.84;4485505;32;20097;-66
2023/07/23 09:50:44;;;;;;;2.37;2.10;;;;;;;29.23;45.59;98874.72;4485202;32;20117;-66
2023/07/23 09:53:15;;;;;;;3.67;2.20;;;;;;;28.82;46.35;98872.41;4469788;32;20587;-66
2023/07/23 09:55:44;;;;;;;2.62;2.10;;;;;;;28.85;44.77;98867.31;4469591;32;20094;-66
2023/07/23 09:58:12;;;;;;;4.45;2.42;;;;;;;29.09;43.85;98869.69;4469661;32;20104;-66
2023/07/23 10:00:41;;;;;;;3.10;2.17;;;;;;;29.15;44.99;98862.47;4455529;32;20158;-66
2023/07/23 10:03:09;;;;;;;5.18;2.30;;;;;;;29.06;45.37;98856.72;4455407;32;20180;-66
2023/07/23 10:05:36;;;;;;;3.65;2.58;;;;;;;29.13;45.21;98849.25;4469699;32;20156;-66
2023/07/23 10:08:04;;;;;;;2.87;2.12;;;;;;;29.26;46.67;98856.09;4469505;32;20093;-67
2023/07/23 10:10:31;;;;;;;3.35;2.35;;;;;;;29.51;42.04;98852.00;4469297;32;20152;-67
2023/07/23 10:12:58;;;;;;;4.72;2.20;;;;;;;28.95;43.06;98838.81;4469583;32;20077;-67
2023/07/23 10:15:27;;;;;;;3.17;2.10;;;;;;;29.05;41.21;98849.69;4480089;32;20446;-67
2023/07/23 10:18:00;;;;;;;3.40;2.22;;;;;;;29.14;42.34;98852.75;4471358;32;20108;-67
2023/07/23 10:20:29;;;;;;;3.65;2.25;;;;;;;29.24;41.34;98844.78;4471277;32;20100;-67
2023/07/23 10:22:57;;;;;;;2.78;1.85;;;;;;;29.24;40.94;98843.94;4485104;32;20180;-66
2023/07/23 10:25:32;;;;;;;3.53;2.30;;;;;;;29.26;42.99;98839.12;4470947;32;20088;-66
2023/07/23 10:28:07;;;;;;;3.15;1.90;;;;;;;29.52;43.08;98840.94;4485203;32;20115;-66
2023/07/23 10:30:36;;;;;;;4.20;2.35;;;;;;;29.80;41.63;98832.72;4485288;32;20088;-66
2023/07/23 10:33:10;;;;;;;5.53;2.28;;;;;;;29.79;40.32;98837.28;4485077;32;20155;-66
2023/07/23 10:35:54;;;;;;;3.58;2.45;;;;;;;29.54;41.06;98830.69;4484979;32;20088;-67
2023/07/23 10:38:29;;;;;;;3.10;2.20;;;;;;;29.33;40.68;98835.13;4485108;32;20152;-66
2023/07/23 10:40:57;;;;;;;3.75;2.42;;;;;;;29.47;42.02;98835.50;4484940;32;20454;-67
2023/07/23 10:43:37;;;;;;;3.65;2.17;;;;;;;29.72;41.99;98829.44;4484909;32;20077;-67
2023/07/23 10:46:06;;;;;;;3.47;1.90;;;;;;;29.93;43.60;98826.06;4484953;32;20127;-67
2023/07/23 10:48:51;;;;;;;6.62;2.60;;;;;;;30.21;41.40;98811.31;4484851;32;20438;-66
2023/07/23 10:51:20;;;;;;;2.75;1.95;;;;;;;30.40;41.56;98817.91;4484613;32;20150;-67
2023/07/23 10:53:56;;;;;;;2.85;2.33;;;;;;;30.17;40.58;98824.53;4484965;32;20509;-66
2023/07/23 10:56:26;;;;;;;3.35;2.10;;;;;;;30.07;41.33;98819.91;4484806;32;20072;-67
2023/07/23 10:58:55;;;;;;;2.85;1.77;;;;;;;30.23;41.81;98815.38;4484632;32;20096;-67
2023/07/23 11:01:26;;;;;;;3.25;2.22;;;;;;;29.98;39.59;98809.88;4484710;32;20149;-67
2023/07/23 11:03:57;;;;;;;3.00;2.12;;;;;;;29.77;41.81;98807.06;4484594;32;20156;-67
2023/07/23 11:06:30;;;;;;;4.22;2.00;;;;;;;29.99;40.96;98815.00;4484759;32;20522;-67
2023/07/23 11:09:03;;;;;;;3.60;2.12;;;;;;;30.09;40.42;98793.44;4484684;32;20087;-67
2023/07/23 11:11:34;;;;;;;2.90;1.95;;;;;;;29.91;41.02;98805.50;4484699;32;20151;-66
2023/07/23 11:14:27;;;;;;;3.33;2.40;;;;;;;29.94;39.14;98800.69;4480258;32;20096;-67
2023/07/23 11:16:59;;;;;;;2.78;2.10;;;;;;;30.12;39.34;98794.00;4484505;32;20095;-67
2023/07/23 11:19:27;;;;;;;3.20;2.22;;;;;;;30.35;40.77;98792.72;4484571;32;20760;-67
2023/07/23 11:21:57;;;;;;;3.65;2.30;;;;;;;30.34;38.28;98788.38;4484560;32;20112;-67
2023/07/23 11:24:26;;;;;;;3.17;2.17;;;;;;;30.25;37.95;98786.19;4484308;32;20092;-66
2023/07/23 11:26:59;;;;;;;2.72;2.10;;;;;;;30.13;39.63;98785.62;4484491;32;20084;-67
2023/07/23 11:29:27;;;;;;;2.58;2.03;;;;;;;30.34;39.92;98782.97;4470501;32;20696;-67
2023/07/23 11:32:01;;;;;;;3.35;2.15;;;;;;;30.34;37.59;98772.16;4484391;32;20678;-67
2023/07/23 11:34:28;;;;;;;2.62;1.90;;;;;;;30.20;39.40;98772.66;4484386;32;20093;-66
2023/07/23 11:36:55;;;;;;;3.42;2.30;;;;;;;30.10;40.18;98775.34;4470111;32;20454;-66
2023/07/23 11:39:26;;;;;;;3.25;2.10;;;;;;;30.48;39.52;98769.78;4484296;32;20100;-67